Sacramento (SMF/KSMF)

Information

Location
Sacramento, CA
Local Time
06:12 / 6:12 am
GMT Time
14:12 / 2:12 pm
Gates
Unassigned
No FAA reported delays
METAR KSMF 221353Z 18019G30KT 5SM RA BR SCT020 BKN025 OVC039 09/08 A2969 RMK AO2 PK WND 15039/1255 SLP052 P0009 T00890078
TAF KSMF 221137Z 2212/2312 15025G40KT P6SM -RA OVC040 FM221500 16020G30KT P6SM -RA OVC040 FM221800 18015KT P6SM -SHRA OVC040 FM222100 18010KT P6SM VCTS OVC040CB FM230600 18010KT P6SM -SHRA OVC030
  • No charts available